Portsmouth, North Carolina
Current Conditions -  °F | °C
As of 11:51 PM on Monday 20 Oct 2014 (Local Time) from KHSE Reporting Station
Broken Clouds Broken Clouds  
Wind Chill: 70°   Ceiling: 8000
Heat Index: 70°   Visibility: 10mi
Dew Point: 60°   Wind: 17mph
Humidity: 71%   Direction: 200°SSW
Pressure: 30"   Gusts: 23mph
Location:  35.1144°N, 75.9815°W
Report Text: KHSE 210351Z AUTO 20015G20KT 10SM BKN080 21/16 A3000 RMK AO2 SLP160 T02110156 TSNO
Loading
Personal Weather Stations






























Interactive Weather Map
Tropical Storm Tracking
New forecast layout! Learn more

10-Day Weather Forecast

Advertisements
Track Severe Weather on mobile